Terminal Aerodrome Forecast
Issued by NWS Albuquerque, NM

Current Version | Previous Version | Text Only | Print | Product List | Glossary On
Versions: 1 2 3 4 5 6 7 8 9 10 11 12 13 14 15 16 17 18 19
000
FTUS45 KABQ 310200 AAA
TAFABQ
TAF AMD
KABQ 310229Z 3102/3124 08009KT 6SM BR VCSH SCT010 OVC025
      TEMPO 3102/3105 5SM -RA SCT008 OVC018
     FM310500 08011KT 5SM -RA BR OVC020
      TEMPO 3105/3108 3SM -RASN BR OVC015
     FM311100 02005KT 5SM -SN BR OVC015
     FM311700 20005KT P6SM VCSH BKN030=

USA.gov is the U.S. government's official web portal to all federal, state and local government web resources and services.